Time;durP1;ratioP1;P1;durP2;ratioP2;P2;SDS_P1;SDS_P2;PMS_P1;PMS_P2;Temp;Humidity;BMP_temperature;BMP_pressure;BME280_temperature;BME280_humidity;BME280_pressure;Samples;Min_cycle;Max_cycle;Signal;HPM_P1;HPM_P2
2021/06/23 00:01:53;;;;;;;2.40;1.98;;;26.70;70.80;;;;;;5034158;28;20088;-40
2021/06/23 00:04:19;;;;;;;2.20;2.00;;;26.60;70.60;;;;;;5036830;28;20092;-40
2021/06/23 00:06:45;;;;;;;1.90;1.80;;;26.60;70.60;;;;;;5039700;28;20518;-40
2021/06/23 00:09:11;;;;;;;2.63;1.95;;;26.60;70.40;;;;;;5030792;28;20029;-40
2021/06/23 00:11:46;;;;;;;2.13;2.00;;;26.60;70.40;;;;;;5029707;28;20026;-40
2021/06/23 00:14:13;;;;;;;2.17;2.08;;;26.70;70.40;;;;;;5035086;28;20030;-39
2021/06/23 00:16:40;;;;;;;2.20;1.95;;;26.60;70.10;;;;;;5034297;28;20058;-40
2021/06/23 00:19:06;;;;;;;2.30;2.15;;;26.60;70.10;;;;;;5035875;28;20045;-40
2021/06/23 00:21:33;;;;;;;1.77;1.67;;;26.60;70.70;;;;;;5034601;28;20061;-41
2021/06/23 00:23:59;;;;;;;2.30;2.10;;;26.60;70.00;;;;;;5032432;28;20037;-40
2021/06/23 00:26:25;;;;;;;2.50;2.30;;;26.60;69.90;;;;;;5039195;28;20048;-40
2021/06/23 00:28:52;;;;;;;2.30;2.10;;;26.60;69.90;;;;;;5036995;28;20338;-40
2021/06/23 00:31:18;;;;;;;2.50;2.30;;;26.60;69.90;;;;;;5039611;28;20028;-40
2021/06/23 00:33:46;;;;;;;2.30;2.10;;;26.60;70.00;;;;;;5033062;28;20444;-40
2021/06/23 00:36:12;;;;;;;3.42;2.03;;;26.50;69.90;;;;;;5031413;28;20030;-40
2021/06/23 00:38:38;;;;;;;2.17;2.07;;;26.50;69.90;;;;;;5033202;28;20025;-40
2021/06/23 00:41:05;;;;;;;2.13;2.03;;;26.50;70.00;;;;;;5033178;28;21110;-40
2021/06/23 00:43:31;;;;;;;2.23;2.03;;;26.60;70.00;;;;;;5039281;28;20820;-40
2021/06/23 00:45:57;;;;;;;2.20;2.10;;;26.60;70.00;;;;;;5033831;28;20089;-41
2021/06/23 00:48:28;;;;;;;2.20;2.10;;;26.50;69.80;;;;;;5030228;28;20045;-40
2021/06/23 00:50:55;;;;;;;2.13;1.92;;;26.50;69.80;;;;;;5033201;28;20041;-40
2021/06/23 00:53:22;;;;;;;2.03;1.92;;;26.50;69.70;;;;;;5021933;28;20029;-40
2021/06/23 00:55:52;;;;;;;2.22;2.08;;;26.50;69.70;;;;;;5023113;28;20040;-41
2021/06/23 00:58:18;;;;;;;2.30;2.10;;;26.50;69.70;;;;;;5031590;28;20039;-40
2021/06/23 01:00:44;;;;;;;2.55;2.30;;;26.50;69.70;;;;;;5027697;28;20025;-40
2021/06/23 01:03:10;;;;;;;4.30;2.40;;;26.50;69.70;;;;;;5038074;28;20482;-40
2021/06/23 01:05:37;;;;;;;3.22;2.30;;;26.50;69.70;;;;;;5020716;28;20030;-41
2021/06/23 01:08:05;;;;;;;2.53;2.33;;;26.40;69.60;;;;;;5035600;28;20120;-40
2021/06/23 01:10:32;;;;;;;2.85;2.17;;;26.50;69.60;;;;;;5026600;28;20098;-40
2021/06/23 01:13:02;;;;;;;3.08;2.13;;;26.40;69.50;;;;;;5036033;28;20191;-41
2021/06/23 01:15:28;;;;;;;2.83;2.13;;;26.40;69.30;;;;;;5031491;28;20037;-40
2021/06/23 01:17:54;;;;;;;1.80;1.70;;;26.40;69.50;;;;;;5031267;28;20532;-41
2021/06/23 01:20:21;;;;;;;2.42;2.22;;;26.40;69.30;;;;;;5031486;28;20034;-40
2021/06/23 01:22:47;;;;;;;1.80;1.70;;;26.40;69.40;;;;;;5027532;28;20022;-41
2021/06/23 01:25:14;;;;;;;2.10;1.87;;;26.40;69.50;;;;;;5029915;28;20049;-40
2021/06/23 01:27:41;;;;;;;1.90;1.80;;;26.40;69.60;;;;;;5028277;28;20069;-40
2021/06/23 01:30:08;;;;;;;1.95;1.85;;;26.30;69.50;;;;;;5029409;28;20093;-40
2021/06/23 01:32:34;;;;;;;2.05;1.95;;;26.30;69.50;;;;;;5025517;28;20060;-40
2021/06/23 01:35:01;;;;;;;2.70;1.87;;;26.30;69.50;;;;;;5030159;28;20021;-41
2021/06/23 01:37:27;;;;;;;2.55;1.90;;;26.30;69.50;;;;;;5039127;28;20107;-41
2021/06/23 01:39:53;;;;;;;1.90;1.75;;;26.30;69.60;;;;;;5028015;28;20033;-40
2021/06/23 01:42:19;;;;;;;2.67;2.10;;;26.30;69.60;;;;;;5038213;28;20168;-40
2021/06/23 01:44:45;;;;;;;1.95;1.50;;;26.20;69.40;;;;;;5034628;28;20914;-40
2021/06/23 01:47:12;;;;;;;1.77;1.67;;;26.20;69.30;;;;;;5031894;28;20034;-40
2021/06/23 01:49:38;;;;;;;2.13;1.70;;;26.20;69.20;;;;;;5035295;28;20026;-40
2021/06/23 01:52:05;;;;;;;2.17;1.70;;;26.20;69.20;;;;;;5030180;28;20083;-40
2021/06/23 01:54:31;;;;;;;2.30;1.83;;;26.20;69.20;;;;;;5035753;28;20041;-41
2021/06/23 01:56:57;;;;;;;2.08;1.77;;;26.10;69.10;;;;;;5037522;28;20086;-40
2021/06/23 01:59:23;;;;;;;2.70;1.60;;;26.10;69.10;;;;;;5040490;28;20064;-41
2021/06/23 02:02:06;;;;;;;1.70;1.60;;;26.10;69.10;;;;;;5036703;28;20356;-41
2021/06/23 02:04:54;;;;;;;1.80;1.70;;;26.10;69.10;;;;;;5035276;28;20049;-40
2021/06/23 02:08:00;;;;;;;1.97;1.87;;;26.10;69.10;;;;;;5030061;28;20055;-41
2021/06/23 02:10:34;;;;;;;2.35;1.75;;;26.10;69.10;;;;;;5031740;28;20033;-42
2021/06/23 02:13:28;;;;;;;2.08;1.85;;;26.10;69.10;;;;;;5027097;28;20028;-40
2021/06/23 02:15:56;;;;;;;1.92;1.55;;;26.00;69.00;;;;;;5030407;28;20136;-40
2021/06/23 02:18:25;;;;;;;2.45;1.70;;;26.00;69.10;;;;;;5034498;28;20077;-40
2021/06/23 02:20:52;;;;;;;1.52;1.42;;;26.00;69.00;;;;;;5026387;28;20038;-41
2021/06/23 02:23:18;;;;;;;1.98;1.58;;;26.00;69.10;;;;;;5021430;28;20482;-40
2021/06/23 02:25:44;;;;;;;1.53;1.43;;;25.90;69.00;;;;;;5032520;28;20030;-40
2021/06/23 02:28:11;;;;;;;1.65;1.55;;;25.90;68.90;;;;;;5029168;28;20030;-40
2021/06/23 02:30:37;;;;;;;1.47;1.37;;;25.90;69.00;;;;;;5035115;28;20021;-40
2021/06/23 02:33:04;;;;;;;2.95;1.70;;;25.90;69.10;;;;;;5027474;28;20034;-40
2021/06/23 02:35:30;;;;;;;3.35;1.52;;;25.90;69.00;;;;;;5032619;28;20045;-41
2021/06/23 02:37:58;;;;;;;1.70;1.30;;;25.90;69.00;;;;;;5020737;28;20474;-40
2021/06/23 02:40:26;;;;;;;2.33;1.42;;;25.80;69.00;;;;;;5024253;28;20033;-40
2021/06/23 02:42:52;;;;;;;1.83;1.50;;;25.80;69.00;;;;;;5019633;28;20696;-41
2021/06/23 02:45:19;;;;;;;1.80;1.63;;;25.80;69.00;;;;;;5038259;28;20036;-41
2021/06/23 02:47:45;;;;;;;1.63;1.40;;;25.80;69.00;;;;;;5027083;28;20033;-41
2021/06/23 02:50:12;;;;;;;1.80;1.37;;;25.70;69.00;;;;;;5032898;28;20415;-41
2021/06/23 02:52:38;;;;;;;2.10;1.50;;;25.80;69.10;;;;;;5035732;28;20032;-41
2021/06/23 02:55:05;;;;;;;1.73;1.60;;;25.70;69.00;;;;;;5034451;28;20117;-40
2021/06/23 02:57:31;;;;;;;;;;;25.70;69.10;;;;;;5038175;28;20034;-40
2021/06/23 02:59:58;;;;;;;2.47;2.10;;;25.70;69.00;;;;;;5036390;28;19921;-40
2021/06/23 03:02:24;;;;;;;1.83;1.45;;;25.60;68.90;;;;;;5024873;28;20041;-41
2021/06/23 03:04:50;;;;;;;2.03;1.40;;;25.60;69.00;;;;;;5035176;28;20029;-41
2021/06/23 03:07:17;;;;;;;1.77;1.65;;;25.60;69.00;;;;;;5036672;28;20063;-41
2021/06/23 03:09:43;;;;;;;;;;;25.60;69.00;;;;;;5044455;28;20109;-40
2021/06/23 03:12:14;;;;;;;1.92;1.60;;;25.60;69.00;;;;;;5034223;28;20637;-40
2021/06/23 03:14:40;;;;;;;3.17;1.52;;;25.60;69.10;;;;;;5039260;28;20051;-43
2021/06/23 03:17:06;;;;;;;1.95;1.40;;;25.60;69.10;;;;;;5037446;28;20057;-41
2021/06/23 03:19:33;;;;;;;2.23;1.60;;;25.50;69.00;;;;;;5035072;28;20040;-41
2021/06/23 03:22:06;;;;;;;1.55;1.45;;;25.50;69.00;;;;;;5028977;28;20034;-40
2021/06/23 03:24:33;;;;;;;1.77;1.50;;;25.50;69.10;;;;;;5028318;28;20022;-41
2021/06/23 03:26:59;;;;;;;1.60;1.40;;;25.50;69.10;;;;;;5039006;28;20033;-41
2021/06/23 03:29:33;;;;;;;1.50;1.40;;;25.50;69.20;;;;;;5036765;28;20025;-41
2021/06/23 03:32:00;;;;;;;1.80;1.40;;;25.40;69.10;;;;;;5036947;28;20037;-40
2021/06/23 03:34:26;;;;;;;1.50;1.38;;;25.40;69.20;;;;;;5037372;28;20036;-41
2021/06/23 03:36:52;;;;;;;2.95;1.50;;;25.40;69.10;;;;;;5030312;28;20030;-41
2021/06/23 03:39:19;;;;;;;2.83;1.20;;;25.40;69.20;;;;;;5036852;28;20033;-40
2021/06/23 03:41:45;;;;;;;3.53;1.60;;;25.40;69.20;;;;;;5037416;28;20059;-41
2021/06/23 03:44:11;;;;;;;1.27;1.17;;;25.40;69.20;;;;;;5039915;28;20025;-42
2021/06/23 03:46:37;;;;;;;1.60;1.50;;;25.40;69.20;;;;;;5035839;28;20044;-41
2021/06/23 03:49:04;;;;;;;1.57;1.47;;;25.30;69.20;;;;;;5031644;28;20122;-41
2021/06/23 03:51:30;;;;;;;2.38;1.85;;;25.30;69.20;;;;;;5029360;28;20037;-40
2021/06/23 03:53:56;;;;;;;1.80;1.65;;;25.30;69.20;;;;;;5037120;28;20055;-41
2021/06/23 03:56:22;;;;;;;3.40;1.47;;;25.30;69.20;;;;;;5037860;28;20026;-41
2021/06/23 03:58:49;;;;;;;4.47;1.60;;;25.20;69.20;;;;;;5036685;28;20026;-40
2021/06/23 04:01:15;;;;;;;1.83;0.98;;;25.20;69.30;;;;;;5038846;28;20036;-41
2021/06/23 04:03:41;;;;;;;1.38;1.27;;;25.20;69.30;;;;;;5036815;28;20583;-39
2021/06/23 04:06:07;;;;;;;1.70;1.13;;;25.20;69.40;;;;;;5036009;28;20045;-41
2021/06/23 04:08:34;;;;;;;3.93;1.27;;;25.20;69.30;;;;;;5039083;28;20571;-41
2021/06/23 04:11:00;;;;;;;2.23;1.60;;;25.20;69.40;;;;;;5029605;28;20121;-40
2021/06/23 04:13:26;;;;;;;3.08;1.25;;;25.10;69.30;;;;;;5033677;28;20038;-41
2021/06/23 04:15:52;;;;;;;2.07;1.40;;;25.10;69.40;;;;;;5028784;28;20072;-41
2021/06/23 04:18:18;;;;;;;1.40;1.30;;;25.10;69.40;;;;;;5037446;28;20045;-41
2021/06/23 04:20:44;;;;;;;3.08;1.15;;;25.10;70.20;;;;;;5032309;28;20037;-41
2021/06/23 04:23:11;;;;;;;2.47;1.45;;;25.00;69.30;;;;;;5028182;28;20052;-39
2021/06/23 04:25:37;;;;;;;2.20;1.20;;;25.00;69.30;;;;;;5036306;28;20040;-40
2021/06/23 04:28:03;;;;;;;2.15;1.42;;;25.00;69.40;;;;;;5041602;28;20132;-40
2021/06/23 04:30:29;;;;;;;1.55;1.45;;;25.00;69.40;;;;;;5026036;28;20032;-40
2021/06/23 04:32:56;;;;;;;2.65;1.73;;;25.00;69.50;;;;;;5037332;28;20093;-40
2021/06/23 04:35:22;;;;;;;1.42;1.30;;;25.00;69.50;;;;;;5032478;28;20037;-41
2021/06/23 04:37:48;;;;;;;1.53;1.30;;;24.90;69.50;;;;;;5037726;28;20038;-41
2021/06/23 04:40:16;;;;;;;1.85;1.30;;;24.90;69.50;;;;;;5039397;28;20573;-41
2021/06/23 04:42:43;;;;;;;2.05;1.40;;;24.90;69.50;;;;;;5033548;28;20033;-40
2021/06/23 04:45:10;;;;;;;3.38;1.35;;;24.90;69.60;;;;;;5030542;28;20842;-40
2021/06/23 04:47:37;;;;;;;2.13;1.30;;;24.90;69.60;;;;;;5027822;28;20049;-40
2021/06/23 04:50:07;;;;;;;2.83;1.48;;;24.80;69.60;;;;;;5033507;28;20029;-41
2021/06/23 04:52:33;;;;;;;2.67;1.50;;;24.80;69.60;;;;;;5034840;28;20511;-41
2021/06/23 04:54:59;;;;;;;1.00;1.00;;;24.80;69.60;;;;;;5038833;28;20275;-40
2021/06/23 04:57:26;;;;;;;1.30;1.20;;;24.80;70.40;;;;;;5037484;28;20041;-41
2021/06/23 04:59:52;;;;;;;2.22;1.33;;;24.80;69.70;;;;;;5041286;28;20120;-40
2021/06/23 05:02:18;;;;;;;1.70;1.48;;;24.80;69.70;;;;;;5030361;28;20034;-41
2021/06/23 05:04:45;;;;;;;2.65;1.30;;;24.70;69.60;;;;;;5029872;28;20099;-40
2021/06/23 05:07:11;;;;;;;1.50;1.30;;;24.70;69.60;;;;;;5038599;28;20037;-41
2021/06/23 05:09:38;;;;;;;2.60;1.27;;;24.70;69.70;;;;;;5032693;28;20634;-40
2021/06/23 05:12:05;;;;;;;2.00;1.30;;;24.70;69.80;;;;;;5040042;28;20065;-41
2021/06/23 05:14:31;;;;;;;2.72;2.05;;;24.70;69.80;;;;;;5025437;28;20033;-41
2021/06/23 05:16:58;;;;;;;3.23;1.30;;;24.60;69.70;;;;;;5038226;28;20049;-40
2021/06/23 05:19:24;;;;;;;2.13;1.50;;;24.60;69.70;;;;;;5031051;28;20036;-41
2021/06/23 05:21:50;;;;;;;1.30;1.20;;;24.60;69.80;;;;;;5033270;28;20112;-41
2021/06/23 05:24:17;;;;;;;3.58;1.40;;;24.60;69.90;;;;;;5039605;28;20040;-40
2021/06/23 05:26:43;;;;;;;1.40;1.30;;;24.60;69.80;;;;;;5032571;28;20037;-41
2021/06/23 05:29:09;;;;;;;3.03;1.30;;;24.60;69.90;;;;;;5031093;28;20033;-41
2021/06/23 05:31:36;;;;;;;1.90;1.40;;;24.50;69.80;;;;;;5035608;28;20037;-40
2021/06/23 05:34:02;;;;;;;1.47;1.37;;;24.50;69.80;;;;;;5040298;28;20029;-40
2021/06/23 05:36:28;;;;;;;1.20;1.10;;;24.50;69.80;;;;;;5025979;28;20018;-40
2021/06/23 05:38:54;;;;;;;2.22;1.45;;;24.50;69.80;;;;;;5031276;28;20030;-41
2021/06/23 05:41:21;;;;;;;3.40;1.42;;;24.50;70.00;;;;;;5035428;28;20112;-41
2021/06/23 05:43:47;;;;;;;2.17;1.25;;;24.50;70.00;;;;;;5035141;28;20028;-41
2021/06/23 05:46:13;;;;;;;1.45;1.35;;;24.40;69.90;;;;;;5035498;28;20037;-41
2021/06/23 05:48:39;;;;;;;1.30;1.20;;;24.40;70.00;;;;;;5029368;28;20060;-41
2021/06/23 05:51:06;;;;;;;2.65;1.20;;;24.40;70.00;;;;;;5027057;28;20037;-41
2021/06/23 05:53:32;;;;;;;2.78;1.30;;;24.40;70.00;;;;;;5031955;28;20029;-40
2021/06/23 05:55:58;;;;;;;2.83;1.20;;;24.40;70.00;;;;;;5033869;28;20029;-40
2021/06/23 05:58:24;;;;;;;1.92;1.20;;;24.30;70.00;;;;;;5034051;28;20018;-41
2021/06/23 06:00:50;;;;;;;2.45;1.55;;;24.30;70.10;;;;;;5039637;28;20037;-41
2021/06/23 06:03:17;;;;;;;3.22;1.10;;;24.30;70.00;;;;;;5030094;28;20479;-40
2021/06/23 06:05:43;;;;;;;1.37;1.27;;;24.30;70.10;;;;;;5040230;28;20033;-41
2021/06/23 06:08:09;;;;;;;3.55;1.20;;;24.30;70.10;;;;;;5041682;28;20339;-41
2021/06/23 06:10:35;;;;;;;1.38;1.27;;;24.30;70.10;;;;;;5028192;28;20030;-41
2021/06/23 06:13:02;;;;;;;2.92;1.40;;;24.20;70.00;;;;;;5032104;28;20030;-41
2021/06/23 06:15:28;;;;;;;2.33;1.42;;;24.20;70.10;;;;;;5030264;28;20025;-41
2021/06/23 06:17:59;;;;;;;2.35;1.20;;;24.20;70.10;;;;;;5038660;28;20064;-40
2021/06/23 06:20:25;;;;;;;2.20;1.30;;;24.20;70.20;;;;;;5039899;28;20021;-40
2021/06/23 06:22:51;;;;;;;2.58;1.10;;;24.20;70.10;;;;;;5024358;28;20037;-40
2021/06/23 06:25:17;;;;;;;3.65;1.40;;;24.10;70.10;;;;;;5031536;28;20032;-40
2021/06/23 06:27:43;;;;;;;1.60;1.50;;;24.10;70.10;;;;;;5033202;28;20046;-40
2021/06/23 06:30:10;;;;;;;2.28;1.20;;;24.10;70.20;;;;;;5031636;28;20034;-40
2021/06/23 06:32:36;;;;;;;3.58;1.20;;;24.10;70.20;;;;;;5036896;28;20034;-41
2021/06/23 06:35:03;;;;;;;1.20;1.20;;;24.10;70.30;;;;;;5030263;28;20025;-40
2021/06/23 06:37:29;;;;;;;1.92;1.30;;;24.10;70.20;;;;;;5032364;28;20483;-41
2021/06/23 06:39:56;;;;;;;1.73;1.10;;;24.00;70.20;;;;;;5034178;28;20021;-40
2021/06/23 06:42:22;;;;;;;2.38;1.38;;;24.00;70.20;;;;;;5028553;28;20694;-40
2021/06/23 06:44:48;;;;;;;3.03;1.40;;;24.00;70.30;;;;;;5037959;28;20578;-41
2021/06/23 06:47:14;;;;;;;2.10;1.10;;;24.00;70.30;;;;;;5035522;28;20033;-40
2021/06/23 06:49:40;;;;;;;2.40;1.25;;;24.00;70.30;;;;;;5034199;28;20075;-40
2021/06/23 06:52:07;;;;;;;1.88;1.30;;;24.00;70.30;;;;;;5033007;28;20033;-41
2021/06/23 06:54:33;;;;;;;2.67;1.33;;;23.90;70.30;;;;;;5033834;28;21204;-41
2021/06/23 06:56:59;;;;;;;1.52;1.20;;;23.90;70.40;;;;;;5035230;28;20064;-40
2021/06/23 06:59:25;;;;;;;1.40;1.10;;;24.00;70.40;;;;;;5039505;28;20028;-41
2021/06/23 07:01:52;;;;;;;1.80;1.33;;;23.90;70.30;;;;;;5030293;28;20563;-41
2021/06/23 07:04:18;;;;;;;2.17;1.20;;;23.90;70.30;;;;;;5026740;28;20038;-40
2021/06/23 07:06:45;;;;;;;1.20;1.10;;;23.90;70.30;;;;;;5032341;28;20434;-40
2021/06/23 07:09:12;;;;;;;5.95;1.67;;;23.90;70.40;;;;;;5036745;28;20056;-40
2021/06/23 07:11:38;;;;;;;3.72;1.27;;;23.80;70.40;;;;;;5032338;28;20091;-41
2021/06/23 07:14:05;;;;;;;1.83;1.17;;;23.80;70.40;;;;;;5030583;28;20764;-41
2021/06/23 07:16:31;;;;;;;1.20;1.10;;;23.80;70.50;;;;;;5032852;28;20045;-41
2021/06/23 07:18:57;;;;;;;2.20;1.23;;;23.80;70.40;;;;;;5034849;28;20590;-41
2021/06/23 07:21:23;;;;;;;1.73;1.25;;;23.80;70.50;;;;;;5033032;28;20025;-40
2021/06/23 07:23:50;;;;;;;1.15;1.00;;;23.80;70.50;;;;;;5031493;28;20046;-41
2021/06/23 07:26:17;;;;;;;1.90;1.25;;;23.70;70.50;;;;;;5031967;28;20033;-40
2021/06/23 07:31:14;;;;;;;1.80;1.10;;;23.70;70.50;;;;;;5031360;28;20018;-40
2021/06/23 07:33:50;;;;;;;1.75;1.17;;;23.70;70.60;;;;;;5035500;28;20045;-40
2021/06/23 07:36:35;;;;;;;4.93;1.67;;;23.70;71.30;;;;;;5039665;28;20573;-41
2021/06/23 07:39:09;;;;;;;1.73;1.20;;;23.70;70.60;;;;;;5034634;28;20026;-41
2021/06/23 07:41:40;;;;;;;1.75;1.40;;;23.60;70.60;;;;;;5033485;28;20030;-41
2021/06/23 07:44:07;;;;;;;2.38;1.17;;;23.70;70.70;;;;;;5027724;28;20135;-40
2021/06/23 07:46:38;;;;;;;5.07;1.40;;;23.60;70.70;;;;;;5034468;28;20030;-41
2021/06/23 07:49:08;;;;;;;1.40;1.15;;;23.60;71.40;;;;;;5025348;28;20089;-40
2021/06/23 07:51:42;;;;;;;1.88;1.20;;;23.60;70.70;;;;;;5057005;28;20029;-40
2021/06/23 08:02:33;;;;;;;2.65;1.08;;;23.50;70.70;;;;;;5031709;28;20108;-41
2021/06/23 08:10:09;;;;;;;2.55;1.30;;;23.50;70.80;;;;;;5044687;28;20089;-40
2021/06/23 08:13:18;;;;;;;2.95;1.20;;;23.40;70.80;;;;;;5044448;28;20029;-41
2021/06/23 08:15:26;;;;;;;2.22;1.08;;;23.40;70.80;;;;;;5058769;28;20115;-41
2021/06/23 08:17:53;;;;;;;4.10;1.23;;;23.40;70.90;;;;;;5064588;28;20051;-41
2021/06/23 08:20:19;;;;;;;6.05;1.33;;;23.40;70.90;;;;;;5064786;28;20029;-41
2021/06/23 08:22:45;;;;;;;1.38;0.98;;;23.40;70.90;;;;;;5064421;28;20029;-40
2021/06/23 08:25:12;;;;;;;1.73;1.35;;;23.40;71.10;;;;;;5041345;28;20045;-41
2021/06/23 08:27:39;;;;;;;1.48;1.30;;;23.40;71.00;;;;;;5025041;28;20041;-41
2021/06/23 08:30:05;;;;;;;1.75;1.13;;;23.40;71.00;;;;;;5061700;28;20040;-41
2021/06/23 08:32:32;;;;;;;3.03;1.40;;;23.30;70.90;;;;;;5035496;28;20018;-40
2021/06/23 08:34:58;;;;;;;3.67;1.20;;;23.30;70.90;;;;;;5030224;28;20033;-41
2021/06/23 08:37:24;;;;;;;3.67;1.60;;;23.30;70.90;;;;;;5044326;28;20104;-41
2021/06/23 08:39:50;;;;;;;2.00;1.05;;;23.30;71.00;;;;;;5027644;28;20089;-41
2021/06/23 08:42:19;;;;;;;2.05;1.25;;;23.30;71.00;;;;;;5044003;28;20033;-41
2021/06/23 08:44:46;;;;;;;1.48;1.38;;;23.30;71.00;;;;;;5038167;28;20037;-41
2021/06/23 08:47:12;;;;;;;1.77;1.20;;;23.20;71.00;;;;;;5023310;28;20049;-42
2021/06/23 08:49:38;;;;;;;1.45;1.35;;;23.20;71.10;;;;;;5012639;28;20662;-41
2021/06/23 08:52:04;;;;;;;3.57;1.40;;;23.20;71.10;;;;;;5062652;28;20033;-41
2021/06/23 08:54:31;;;;;;;3.38;1.30;;;23.20;71.10;;;;;;5046480;28;20067;-41
2021/06/23 08:56:57;;;;;;;1.95;1.20;;;23.20;71.00;;;;;;5063972;28;20033;-41
2021/06/23 08:59:23;;;;;;;1.42;1.15;;;23.20;71.20;;;;;;5062548;28;20017;-41
2021/06/23 09:01:49;;;;;;;2.22;1.25;;;23.20;71.10;;;;;;5056753;28;20033;-42
2021/06/23 09:04:17;;;;;;;1.50;1.40;;;23.10;71.10;;;;;;5044023;28;20026;-41
2021/06/23 09:06:51;;;;;;;1.65;1.20;;;23.10;71.00;;;;;;5043658;28;20466;-42
2021/06/23 09:09:28;;;;;;;1.80;1.27;;;23.10;71.10;;;;;;5042490;28;20025;-42
2021/06/23 09:12:14;;;;;;;2.67;1.35;;;23.10;71.20;;;;;;5023690;28;20030;-41
2021/06/23 09:14:40;;;;;;;1.75;1.20;;;23.10;71.10;;;;;;5022418;28;20026;-41
2021/06/23 09:17:09;;;;;;;1.20;1.10;;;23.10;71.10;;;;;;5040268;28;20540;-41
2021/06/23 09:19:49;;;;;;;2.60;1.30;;;23.10;71.20;;;;;;5049495;28;20061;-41
2021/06/23 09:22:39;;;;;;;2.00;1.00;;;23.00;71.20;;;;;;5043413;28;20030;-41
2021/06/23 09:25:11;;;;;;;3.10;1.20;;;23.00;71.20;;;;;;5047048;28;20087;-41
2021/06/23 09:28:05;;;;;;;1.98;1.30;;;23.00;71.20;;;;;;5063346;28;20036;-42
2021/06/23 09:30:41;;;;;;;1.40;1.30;;;23.00;71.20;;;;;;5045530;28;20148;-41
2021/06/23 09:33:18;;;;;;;1.42;1.23;;;23.00;71.30;;;;;;5029981;28;20018;-41
2021/06/23 09:35:46;;;;;;;1.90;1.20;;;22.90;71.30;;;;;;5038809;28;20064;-42
2021/06/23 09:38:36;;;;;;;2.75;1.42;;;22.90;71.20;;;;;;5036274;28;20034;-40
2021/06/23 09:41:24;;;;;;;1.30;1.20;;;22.90;71.30;;;;;;5032204;28;20033;-42
2021/06/23 09:43:52;;;;;;;1.20;1.10;;;22.90;71.20;;;;;;5034584;28;20760;-43
2021/06/23 09:46:27;;;;;;;1.85;1.30;;;22.90;71.30;;;;;;5032737;28;20024;-42
2021/06/23 09:49:17;;;;;;;1.23;1.13;;;22.90;71.30;;;;;;5038801;28;20498;-41
2021/06/23 09:51:44;;;;;;;2.20;1.30;;;22.90;71.40;;;;;;5039166;28;20029;-42
2021/06/23 09:54:11;;;;;;;3.05;1.48;;;22.80;71.40;;;;;;5033026;28;20081;-41
2021/06/23 09:56:44;;;;;;;3.13;1.30;;;22.80;71.40;;;;;;5033162;28;20033;-42
2021/06/23 09:59:23;;;;;;;1.42;1.33;;;22.80;71.40;;;;;;5027835;28;20040;-42
2021/06/23 10:01:49;;;;;;;1.40;1.30;;;22.80;71.50;;;;;;5031639;28;20136;-42
2021/06/23 10:04:16;;;;;;;3.20;1.38;;;22.80;71.50;;;;;;5034613;28;20029;-42
2021/06/23 10:06:47;;;;;;;3.90;1.50;;;22.80;71.50;;;;;;5038242;28;20035;-42
2021/06/23 10:09:24;;;;;;;1.90;1.48;;;22.80;71.50;;;;;;5030300;28;20117;-42
2021/06/23 10:12:07;;;;;;;2.03;1.15;;;22.70;71.50;;;;;;5029095;28;20037;-42
2021/06/23 10:14:41;;;;;;;2.72;1.42;;;22.70;71.60;;;;;;5038330;28;20041;-41
2021/06/23 10:17:08;;;;;;;3.92;1.40;;;22.70;71.50;;;;;;5031089;28;20053;-42
2021/06/23 10:19:34;;;;;;;1.75;1.40;;;22.70;71.50;;;;;;5034978;28;20026;-42
2021/06/23 10:22:01;;;;;;;4.03;1.30;;;22.70;71.50;;;;;;5035753;28;20041;-42
2021/06/23 10:24:30;;;;;;;2.88;1.13;;;22.70;71.50;;;;;;5029828;28;20022;-43
2021/06/23 10:26:57;;;;;;;1.30;1.10;;;22.70;71.60;;;;;;5028765;28;20759;-42
2021/06/23 10:29:30;;;;;;;6.75;1.85;;;22.60;71.70;;;;;;5028450;28;20034;-42
2021/06/23 10:31:56;;;;;;;4.22;1.30;;;22.60;71.60;;;;;;5029886;28;20030;-43
2021/06/23 10:34:23;;;;;;;2.10;1.43;;;22.60;71.60;;;;;;5034170;28;20048;-42
2021/06/23 10:36:49;;;;;;;2.95;1.25;;;22.60;71.70;;;;;;5028879;28;20277;-42
2021/06/23 10:39:16;;;;;;;1.77;1.35;;;22.60;71.70;;;;;;5033847;28;20037;-44
2021/06/23 10:41:53;;;;;;;2.40;1.30;;;22.60;71.70;;;;;;5030886;28;20034;-44
2021/06/23 10:44:20;;;;;;;2.40;1.40;;;22.50;71.60;;;;;;5019036;28;20462;-42
2021/06/23 10:46:47;;;;;;;3.50;1.27;;;22.50;71.70;;;;;;5037828;28;20064;-43
2021/06/23 10:49:18;;;;;;;2.17;1.25;;;22.50;71.70;;;;;;5026963;28;20038;-42
2021/06/23 10:51:47;;;;;;;1.67;1.33;;;22.50;71.60;;;;;;5031670;28;20033;-42
2021/06/23 10:54:31;;;;;;;1.85;1.40;;;22.50;71.70;;;;;;5034953;28;20032;-43
2021/06/23 10:56:58;;;;;;;2.08;1.15;;;22.50;71.70;;;;;;5034888;28;20040;-42
2021/06/23 10:59:34;;;;;;;3.78;1.50;;;22.50;71.70;;;;;;5021781;28;20025;-43
2021/06/23 11:02:08;;;;;;;1.63;1.45;;;22.50;71.80;;;;;;5034643;28;20037;-42
2021/06/23 11:05:02;;;;;;;1.55;1.30;;;22.40;71.80;;;;;;5031794;28;20018;-42
2021/06/23 11:07:40;;;;;;;3.65;1.40;;;22.40;71.80;;;;;;5040931;28;20041;-43
2021/06/23 11:10:13;;;;;;;2.30;1.25;;;22.40;71.80;;;;;;5031399;28;20072;-42
2021/06/23 11:12:59;;;;;;;3.15;1.23;;;22.40;71.80;;;;;;5032392;28;20038;-43
2021/06/23 11:15:31;;;;;;;3.08;1.48;;;22.40;71.80;;;;;;5039281;28;20021;-43
2021/06/23 11:18:21;;;;;;;3.63;1.40;;;22.40;71.80;;;;;;5041405;28;20077;-43
2021/06/23 11:20:49;;;;;;;3.50;1.70;;;22.30;71.90;;;;;;5043435;28;20029;-43
2021/06/23 11:23:53;;;;;;;3.00;1.48;;;22.30;71.80;;;;;;5030647;28;20600;-42
2021/06/23 11:26:22;;;;;;;3.03;1.48;;;22.30;71.90;;;;;;5036201;28;20030;-42
2021/06/23 11:28:57;;;;;;;2.85;1.60;;;22.30;71.90;;;;;;5034054;28;20822;-44
2021/06/23 11:31:39;;;;;;;2.83;1.20;;;22.30;71.90;;;;;;5037092;28;20036;-44
2021/06/23 11:34:05;;;;;;;1.30;1.20;;;22.30;71.90;;;;;;5043437;28;20028;-42
2021/06/23 11:36:31;;;;;;;2.05;1.15;;;22.20;72.00;;;;;;5045596;28;20029;-42
2021/06/23 11:38:57;;;;;;;2.47;1.30;;;22.20;71.90;;;;;;5045572;28;20029;-42
2021/06/23 11:41:24;;;;;;;1.33;1.23;;;22.20;72.00;;;;;;5043916;28;20022;-41
2021/06/23 11:43:50;;;;;;;3.30;1.48;;;22.20;72.00;;;;;;5044982;28;20029;-43
2021/06/23 11:46:16;;;;;;;2.13;1.20;;;22.20;71.90;;;;;;5034797;28;20425;-43
2021/06/23 11:48:43;;;;;;;6.00;1.30;;;22.20;71.90;;;;;;5036902;28;20436;-43
2021/06/23 11:51:10;;;;;;;1.40;1.30;;;22.20;72.00;;;;;;5036674;28;20030;-42
2021/06/23 11:53:36;;;;;;;1.65;1.33;;;22.20;72.00;;;;;;5032846;28;20056;-43
2021/06/23 11:56:03;;;;;;;2.03;1.20;;;22.20;72.00;;;;;;5039627;28;20036;-43
2021/06/23 11:58:29;;;;;;;1.73;1.10;;;22.10;72.00;;;;;;5040196;28;20771;-43
2021/06/23 12:00:55;;;;;;;3.85;1.50;;;22.10;71.90;;;;;;5034502;28;20283;-43
2021/06/23 12:03:22;;;;;;;3.00;1.25;;;22.10;72.00;;;;;;5034890;28;20081;-43
2021/06/23 12:05:49;;;;;;;1.45;1.23;;;22.10;72.00;;;;;;5032347;28;20056;-42
2021/06/23 12:08:15;;;;;;;1.80;1.33;;;22.10;72.00;;;;;;5042612;28;20045;-42
2021/06/23 12:10:43;;;;;;;1.10;1.00;;;22.10;72.00;;;;;;5044154;28;20042;-43
2021/06/23 12:13:10;;;;;;;2.00;1.20;;;22.10;72.00;;;;;;5038979;28;20109;-42
2021/06/23 12:15:36;;;;;;;2.22;1.27;;;22.10;72.00;;;;;;5036200;28;20037;-42
2021/06/23 12:18:05;;;;;;;3.27;1.30;;;22.10;72.10;;;;;;5024199;28;20050;-43
2021/06/23 12:20:32;;;;;;;1.95;1.17;;;22.10;72.10;;;;;;5030792;28;20044;-41
2021/06/23 12:22:59;;;;;;;1.27;1.08;;;22.10;72.10;;;;;;5025350;28;20497;-42
2021/06/23 12:25:27;;;;;;;1.88;1.45;;;22.10;72.10;;;;;;5037337;28;20038;-41
2021/06/23 12:27:54;;;;;;;3.58;1.40;;;22.00;72.00;;;;;;5037081;28;20029;-41
2021/06/23 12:30:21;;;;;;;2.03;1.30;;;22.00;72.00;;;;;;5033615;28;20026;-41
2021/06/23 12:32:48;;;;;;;1.73;1.45;;;22.00;72.00;;;;;;5028898;28;20044;-41
2021/06/23 12:35:15;;;;;;;1.98;1.20;;;22.00;72.00;;;;;;5028088;28;20048;-42
2021/06/23 12:37:41;;;;;;;4.30;1.60;;;22.00;72.00;;;;;;5031249;28;20030;-40
2021/06/23 12:40:07;;;;;;;1.60;1.50;;;22.00;72.00;;;;;;5036406;28;20028;-41
2021/06/23 12:42:34;;;;;;;2.35;1.35;;;22.00;72.00;;;;;;5033180;28;20474;-40
2021/06/23 12:45:00;;;;;;;1.70;1.48;;;22.10;72.10;;;;;;5032207;28;20042;-40
2021/06/23 12:47:26;;;;;;;2.97;1.25;;;22.00;72.00;;;;;;5037410;28;20099;-41
2021/06/23 12:49:52;;;;;;;2.17;1.30;;;22.10;72.10;;;;;;5038639;28;20037;-40
2021/06/23 12:52:18;;;;;;;3.42;1.33;;;22.10;72.80;;;;;;5034075;28;20040;-40
2021/06/23 12:54:44;;;;;;;1.75;1.40;;;22.10;72.10;;;;;;5032400;28;20081;-40
2021/06/23 12:57:11;;;;;;;1.70;1.15;;;22.10;72.00;;;;;;5036343;28;20026;-40
2021/06/23 12:59:37;;;;;;;1.38;1.20;;;22.10;72.10;;;;;;5031478;28;20037;-40
2021/06/23 13:02:03;;;;;;;3.05;1.58;;;22.10;72.10;;;;;;5031790;28;20030;-40
2021/06/23 13:04:29;;;;;;;2.45;1.60;;;22.10;72.00;;;;;;5030674;28;20247;-41
2021/06/23 13:06:55;;;;;;;2.05;1.50;;;22.10;72.00;;;;;;5034183;28;20064;-40
2021/06/23 13:09:22;;;;;;;3.60;1.50;;;22.10;72.10;;;;;;5033766;28;20030;-40
2021/06/23 13:11:48;;;;;;;3.42;1.48;;;22.10;71.90;;;;;;5035339;28;20045;-42